createdAt,value
2023-04-20T00:00:35.317Z,102192.41
2023-04-20T00:05:37.600Z,102190.69
2023-04-20T00:10:39.069Z,102183.50
2023-04-20T00:15:40.561Z,102177.94
2023-04-20T00:20:42.199Z,102171.38
2023-04-20T00:25:43.670Z,102164.06
2023-04-20T00:30:45.170Z,102161.03
2023-04-20T00:35:46.680Z,102161.06
2023-04-20T00:40:53.004Z,102145.81
2023-04-20T00:45:54.637Z,102141.63
2023-04-20T00:50:56.109Z,102135.47
2023-04-20T00:55:57.606Z,102125.63
2023-04-20T01:00:59.099Z,102122.44
2023-04-20T01:06:01.946Z,102115.56
2023-04-20T01:11:03.431Z,102105.97
2023-04-20T01:16:05.026Z,102103.03
2023-04-20T01:21:06.534Z,102104.25
2023-04-20T01:26:08.882Z,102093.13
2023-04-20T01:31:10.611Z,102099.75
2023-04-20T01:36:12.519Z,102097.75
2023-04-20T01:41:13.980Z,102085.41
2023-04-20T01:46:15.508Z,102090.72
2023-04-20T01:51:17.008Z,102082.13
2023-04-20T01:56:18.470Z,102072.34
2023-04-20T02:01:20.021Z,102074.44
2023-04-20T02:06:21.527Z,102064.97
2023-04-20T02:11:22.999Z,102054.91
2023-04-20T02:16:24.734Z,102049.31
2023-04-20T02:21:26.318Z,102048.72
2023-04-20T02:26:27.797Z,102027.34
2023-04-20T02:31:29.302Z,102034.56
2023-04-20T02:36:30.873Z,102018.47
2023-04-20T02:41:32.589Z,102026.81
2023-04-20T02:46:34.094Z,102007.44
2023-04-20T02:51:35.661Z,102018.41
2023-04-20T02:56:37.392Z,102010.69
2023-04-20T03:01:39.011Z,102001.13
2023-04-20T03:06:40.622Z,102011.38
2023-04-20T03:11:42.092Z,102002.09
2023-04-20T03:16:43.767Z,102011.41
2023-04-20T03:21:45.406Z,102000.59
2023-04-20T03:26:46.862Z,101993.03
2023-04-20T03:31:48.417Z,101996.75
2023-04-20T03:36:49.896Z,101997.19
2023-04-20T03:41:51.374Z,101996.25
2023-04-20T03:46:52.832Z,101979.16
2023-04-20T03:51:54.321Z,101980.53
2023-04-20T03:56:55.822Z,101979.22
2023-04-20T04:01:58.334Z,101967.25
2023-04-20T04:06:59.855Z,101957.47
2023-04-20T04:12:01.392Z,101945.56
2023-04-20T04:17:02.969Z,101955.06
2023-04-20T04:22:04.484Z,101946.66
2023-04-20T04:27:06.052Z,101941.47
2023-04-20T04:32:08.080Z,101936.47
2023-04-20T04:37:09.667Z,101946.63
2023-04-20T04:42:11.253Z,101939.69
2023-04-20T04:47:12.824Z,101933.56
2023-04-20T04:52:14.629Z,101933.69
2023-04-20T04:57:16.162Z,101936.34
2023-04-20T05:02:17.770Z,101914.88
2023-04-20T05:07:19.352Z,101915.69
2023-04-20T05:12:20.820Z,101909.75
2023-04-20T05:17:22.333Z,101907.56
2023-04-20T05:22:23.819Z,101916.59
2023-04-20T05:27:25.311Z,101923.56
2023-04-20T05:32:26.787Z,101929.38
2023-04-20T05:37:28.293Z,101932.09
2023-04-20T05:42:29.897Z,101942.25
2023-04-20T05:47:31.470Z,101938.72
2023-04-20T05:52:33.393Z,101937.97
2023-04-20T05:57:34.909Z,101945.56
2023-04-20T06:02:36.928Z,101924.25
2023-04-20T06:07:38.518Z,101923.66
2023-04-20T06:12:40.076Z,101935.53
2023-04-20T06:17:41.729Z,101928.72
2023-04-20T06:22:44.483Z,101914.13
2023-04-20T06:27:46.608Z,101912.19
2023-04-20T06:32:48.116Z,101905.41
2023-04-20T06:37:49.694Z,101914.06
2023-04-20T06:42:51.149Z,101924.41
2023-04-20T06:47:52.631Z,101924.00
2023-04-20T06:52:54.074Z,101927.53
2023-04-20T06:57:55.546Z,101933.97
2023-04-20T07:02:57.275Z,101934.19
2023-04-20T07:07:58.841Z,101921.69
2023-04-20T07:13:00.487Z,101926.69
2023-04-20T07:18:02.096Z,101917.91
2023-04-20T07:23:03.801Z,101923.16
2023-04-20T07:28:05.308Z,101918.53
2023-04-20T07:33:07.357Z,101923.00
2023-04-20T07:38:08.917Z,101926.41
2023-04-20T07:43:10.432Z,101921.25
2023-04-20T07:48:13.007Z,101926.22
2023-04-20T07:53:14.538Z,101913.44
2023-04-20T07:58:17.395Z,101918.91
2023-04-20T08:03:19.211Z,101937.50
2023-04-20T08:08:20.798Z,101929.19
2023-04-20T08:13:22.250Z,101932.88
2023-04-20T08:18:23.861Z,101934.50
2023-04-20T08:23:27.989Z,101937.69
2023-04-20T08:28:33.374Z,101943.72
2023-04-20T08:33:35.104Z,101937.34
2023-04-20T08:38:36.573Z,101936.28
2023-04-20T08:43:38.041Z,101939.72
2023-04-20T08:48:39.505Z,101935.69
2023-04-20T08:53:40.974Z,101926.97
2023-04-20T08:58:42.434Z,101940.16
2023-04-20T09:03:44.450Z,101933.97
2023-04-20T09:08:46.434Z,101949.56
2023-04-20T09:14:06.453Z,101939.53
2023-04-20T09:19:09.476Z,101941.34
2023-04-20T09:24:11.415Z,101944.13
2023-04-20T09:29:19.821Z,101942.41
2023-04-20T09:34:21.451Z,101946.75
2023-04-20T09:39:23.918Z,101951.41
2023-04-20T09:44:25.383Z,101960.09
2023-04-20T09:49:26.843Z,101951.53
2023-04-20T09:54:29.592Z,101958.25
2023-04-20T09:59:32.882Z,101958.84
2023-04-20T10:04:34.711Z,101953.34
2023-04-20T10:09:37.729Z,101951.88
2023-04-20T10:14:39.054Z,101953.91
2023-04-20T10:19:44.331Z,101964.00
2023-04-20T10:24:46.095Z,101966.63
2023-04-20T10:29:48.369Z,101973.72
2023-04-20T10:35:03.412Z,101974.69
2023-04-20T10:40:07.715Z,101984.59
2023-04-20T10:45:10.791Z,101976.06
2023-04-20T10:50:13.610Z,101965.78
2023-04-20T10:55:19.751Z,101970.97
2023-04-20T11:00:22.930Z,101976.31
2023-04-20T11:05:27.897Z,101970.94
2023-04-20T11:10:39.730Z,101965.47
2023-04-20T11:15:41.206Z,101926.59
2023-04-20T11:20:54.787Z,101927.47
2023-04-20T11:25:56.621Z,101927.38
2023-04-20T11:30:58.084Z,101924.34
2023-04-20T11:35:59.853Z,101928.53
2023-04-20T11:41:07.799Z,101938.50
2023-04-20T11:46:16.886Z,101935.38
2023-04-20T11:51:18.436Z,101920.03
2023-04-20T11:56:19.930Z,101923.84
2023-04-20T12:01:21.494Z,101920.41
2023-04-20T12:06:22.993Z,101916.34
2023-04-20T12:11:24.776Z,101927.88
2023-04-20T12:16:26.468Z,101904.06
2023-04-20T12:21:28.034Z,101899.78
2023-04-20T12:26:37.990Z,101897.56
2023-04-20T12:31:40.555Z,101894.28
2023-04-20T12:36:42.171Z,101892.31
2023-04-20T12:41:43.654Z,101902.16
2023-04-20T12:46:45.451Z,101897.78
2023-04-20T12:51:47.062Z,101896.56
2023-04-20T12:56:48.527Z,101907.25
2023-04-20T13:01:50.191Z,101906.94
2023-04-20T13:06:51.891Z,101900.41
2023-04-20T13:11:53.732Z,101901.50
2023-04-20T13:16:55.584Z,101907.19
2023-04-20T13:21:57.558Z,101904.63
2023-04-20T13:26:59.036Z,101897.09
2023-04-20T13:32:00.648Z,101889.50
2023-04-20T13:37:02.259Z,101885.72
2023-04-20T13:42:03.790Z,101888.94
2023-04-20T13:47:05.359Z,101881.91
2023-04-20T13:52:06.897Z,101875.09
2023-04-20T13:57:08.913Z,101868.09
2023-04-20T14:02:10.924Z,101873.00
2023-04-20T14:07:12.417Z,101871.06
2023-04-20T14:12:13.951Z,101875.72
2023-04-20T14:17:17.833Z,101863.22
2023-04-20T14:22:19.291Z,101856.00
2023-04-20T14:27:20.760Z,101849.41
2023-04-20T14:32:22.269Z,101851.84
2023-04-20T14:37:24.974Z,101847.53
2023-04-20T14:42:26.445Z,101856.34
2023-04-20T14:47:28.992Z,101845.59
2023-04-20T14:52:30.510Z,101848.50
2023-04-20T14:57:31.986Z,101843.28
2023-04-20T15:02:33.904Z,101838.13
2023-04-20T15:07:35.590Z,101830.88
2023-04-20T15:12:37.061Z,101819.81
2023-04-20T15:17:38.616Z,101826.25
2023-04-20T15:22:40.188Z,101828.22
2023-04-20T15:27:41.689Z,101820.63
2023-04-20T15:32:43.169Z,101819.09
2023-04-20T15:37:45.322Z,101806.63
2023-04-20T15:42:46.819Z,101808.72
2023-04-20T15:47:48.320Z,101796.59
2023-04-20T15:52:51.998Z,101796.59
2023-04-20T15:57:57.116Z,101789.34
2023-04-20T16:03:01.396Z,101787.59
2023-04-20T16:08:03.200Z,101785.72
2023-04-20T16:13:04.911Z,101775.38
2023-04-20T16:18:06.446Z,101778.03
2023-04-20T16:23:07.957Z,101772.28
2023-04-20T16:28:09.503Z,101765.66
2023-04-20T16:33:11.059Z,101762.00
2023-04-20T16:38:12.576Z,101765.50
2023-04-20T16:43:14.037Z,101756.53
2023-04-20T16:48:15.511Z,101755.56
2023-04-20T16:53:17.072Z,101749.31
2023-04-20T16:58:18.561Z,101750.97
2023-04-20T17:03:20.220Z,101742.44
2023-04-20T17:08:21.954Z,101737.47
2023-04-20T17:13:23.433Z,101745.53
2023-04-20T17:18:24.959Z,101739.31
2023-04-20T17:23:26.551Z,101725.84
2023-04-20T17:28:28.029Z,101730.81
2023-04-20T17:33:29.520Z,101728.09
2023-04-20T17:38:31.077Z,101740.25
2023-04-20T17:43:32.572Z,101735.53
2023-04-20T17:48:34.169Z,101727.78
2023-04-20T17:53:35.633Z,101730.63
2023-04-20T17:58:37.127Z,101736.38
2023-04-20T18:03:39.549Z,101716.47
2023-04-20T18:08:41.235Z,101734.91
2023-04-20T18:13:44.585Z,101719.09
2023-04-20T18:18:46.101Z,101726.00
2023-04-20T18:23:47.801Z,101731.97
2023-04-20T18:28:49.291Z,101727.00
2023-04-20T18:33:50.762Z,101739.19
2023-04-20T18:38:53.108Z,101759.91
2023-04-20T18:43:56.278Z,101757.81
2023-04-20T18:48:57.806Z,101761.31
2023-04-20T18:53:59.354Z,101759.69
2023-04-20T18:59:01.485Z,101751.28
2023-04-20T19:04:03.078Z,101768.91
2023-04-20T19:09:07.290Z,101755.75
2023-04-20T19:14:10.062Z,101777.44
2023-04-20T19:19:11.891Z,101777.97
2023-04-20T19:24:13.374Z,101788.94
2023-04-20T19:29:14.841Z,101795.84
2023-04-20T19:34:16.520Z,101796.50
2023-04-20T19:39:18.171Z,101795.84
2023-04-20T19:44:19.863Z,101798.31
2023-04-20T19:49:21.592Z,101800.06
2023-04-20T19:54:23.125Z,101805.34
2023-04-20T19:59:24.607Z,101804.34
2023-04-20T20:04:26.785Z,101806.13
2023-04-20T20:09:28.513Z,101795.47
2023-04-20T20:14:31.057Z,101790.88
2023-04-20T20:19:32.540Z,101788.13
2023-04-20T20:24:34.003Z,101796.56
2023-04-20T20:29:35.561Z,101793.81
2023-04-20T20:34:37.015Z,101793.34
2023-04-20T20:39:38.519Z,101796.38
2023-04-20T20:44:40.009Z,101792.03
2023-04-20T20:49:41.537Z,101798.00
2023-04-20T20:54:43.064Z,101785.03
2023-04-20T20:59:44.580Z,101786.69
2023-04-20T21:04:46.046Z,101779.44
2023-04-20T21:09:47.519Z,101773.34
2023-04-20T21:14:51.285Z,101770.25
2023-04-20T21:19:52.795Z,101779.63
2023-04-20T21:24:54.258Z,101782.47
2023-04-20T21:29:55.771Z,101769.88
2023-04-20T21:34:57.263Z,101779.13
2023-04-20T21:39:58.744Z,101770.97
2023-04-20T21:45:00.206Z,101780.53
2023-04-20T21:50:01.674Z,101778.50
2023-04-20T21:55:03.171Z,101772.34
2023-04-20T22:00:04.849Z,101772.59
2023-04-20T22:05:08.550Z,101767.72
2023-04-20T22:10:10.068Z,101764.78
2023-04-20T22:15:13.404Z,101764.94
2023-04-20T22:20:15.483Z,101773.78
2023-04-20T22:25:16.962Z,101775.19
2023-04-20T22:30:18.444Z,101772.00
2023-04-20T22:35:19.909Z,101765.72
2023-04-20T22:40:21.369Z,101757.66
2023-04-20T22:45:22.847Z,101759.28
2023-04-20T22:50:24.424Z,101753.13
2023-04-20T22:55:25.920Z,101756.56
2023-04-20T23:00:27.401Z,101747.34
2023-04-20T23:05:28.968Z,101753.78
2023-04-20T23:10:30.457Z,101748.38
2023-04-20T23:15:31.944Z,101745.25
2023-04-20T23:20:33.680Z,101747.78
2023-04-20T23:25:35.251Z,101753.53
2023-04-20T23:30:36.741Z,101748.53
2023-04-20T23:35:38.231Z,101740.59
2023-04-20T23:40:39.799Z,101734.03
2023-04-20T23:45:41.306Z,101736.63
2023-04-20T23:50:42.808Z,101740.78
2023-04-20T23:55:48.153Z,101728.47
